This is the latest recevied weather packets stored in our database for station/object E20ZNR-1. If no packets are shown the sender has not sent any weather packets the latest 10 day(s).
| Time | Temp. | Humidity | Pressure | Rain* | Wind** | Luminosity | Snow |
|---|---|---|---|---|---|---|---|
| 1777617940 | 37.22° C | 55% | 1004 hPa | - | - | 0 W/m² | - |
| 1777617014 | 37.78° C | 53% | 1004 hPa | - | - | 0 W/m² | - |
| 1777616089 | 38.33° C | 52% | 1005 hPa | - | - | 0 W/m² | - |
| 1777615163 | 36.67° C | 56% | 1005 hPa | - | - | 0 W/m² | - |
| 1777614238 | 36.67° C | 57% | 1005 hPa | - | - | 0 W/m² | - |
| 1777613313 | 37.22° C | 54% | 1006 hPa | - | - | 0 W/m² | - |
| 1777612388 | 36.67° C | 56% | 1006 hPa | - | - | 0 W/m² | - |
| 1777611463 | 37.78° C | 54% | 1006 hPa | - | - | 0 W/m² | - |
| 1777610538 | 37.78° C | 53% | 1007 hPa | - | - | 0 W/m² | - |
| 1777609597 | 38.33° C | 53% | 1007 hPa | - | - | 0 W/m² | - |
| 1777608641 | 37.22° C | 54% | 1007 hPa | - | - | 0 W/m² | - |
| 1777608025 | 36.67° C | 56% | 1007 hPa | - | - | 0 W/m² | - |
| 1777605842 | 37.78° C | 51% | 1007 hPa | - | - | 0 W/m² | - |
| 1777604917 | 37.22° C | 50% | 1007 hPa | - | - | 0 W/m² | - |
| 1777603978 | 37.78° C | 52% | 1008 hPa | - | - | 0 W/m² | - |
| 1777603052 | 35.56° C | 55% | 1008 hPa | - | - | 0 W/m² | - |
| 1777602940 | 35° C | 56% | 1008 hPa | - | - | 0 W/m² | - |
| 1777602122 | 37.22° C | 53% | 1008 hPa | - | - | 0 W/m² | - |
| 1777601197 | 36.11° C | 53% | 1008 hPa | - | - | 0 W/m² | - |
| 1777600272 | 42.78° C | 39% | 1008 hPa | - | - | 0 W/m² | - |
| 1777599346 | 41.11° C | 41% | 1008 hPa | - | - | 0 W/m² | - |
| 1777598366 | 43.33° C | 36% | 1007 hPa | - | - | 0 W/m² | - |
| 1777597441 | 45.56° C | 36% | 1007 hPa | - | - | 0 W/m² | - |
| 1777596516 | 41.67° C | 41% | 1007 hPa | - | - | 0 W/m² | - |
| 1777595590 | 39.44° C | 46% | 1007 hPa | - | - | 0 W/m² | - |
* Rain since midnight (hover to see other rain measurements)
** Current wind speed in m/s (hover to see current wind gust speed)